Time;durP1;ratioP1;P1;durP2;ratioP2;P2;SDS_P1;SDS_P2;PMS_P1;PMS_P2;Temp;Humidity;BMP_temperature;BMP_pressure;BME280_temperature;BME280_humidity;BME280_pressure;Samples;Min_cycle;Max_cycle;Signal;HPM_P1;HPM_P2
2021/11/19 00:00:08;;;;;;;11.00;9.10;;;;;;;;;;5037776;28;20459;-73
2021/11/19 00:02:36;;;;;;;12.20;9.10;;;;;;;;;;5038892;28;20469;-73
2021/11/19 00:05:04;;;;;;;11.57;9.30;;;;;;;;;;5038160;28;20648;-73
2021/11/19 00:07:33;;;;;;;15.00;10.60;;;;;;;;;;5038019;28;20466;-73
2021/11/19 00:10:01;;;;;;;13.80;9.47;;;;;;;;;;5037826;28;20450;-73
2021/11/19 00:12:29;;;;;;;12.30;9.77;;;;;;;;;;5038257;28;20914;-73
2021/11/19 00:14:56;;;;;;;19.00;10.93;;;;;;;;;;5038465;28;20450;-72
2021/11/19 00:17:26;;;;;;;17.00;9.73;;;;;;;;;;5037393;28;20501;-72
2021/11/19 00:19:53;;;;;;;13.17;10.07;;;;;;;;;;5037074;28;20454;-74
2021/11/19 00:22:22;;;;;;;17.97;11.20;;;;;;;;;;5055135;28;20534;-73
2021/11/19 00:24:50;;;;;;;12.10;8.50;;;;;;;;;;5055978;28;20461;-73
2021/11/19 00:27:19;;;;;;;12.53;9.67;;;;;;;;;;5051740;28;20541;-74
2021/11/19 00:29:48;;;;;;;15.40;10.00;;;;;;;;;;5036772;28;20502;-73
2021/11/19 00:32:16;;;;;;;13.70;8.20;;;;;;;;;;5037543;28;20462;-71
2021/11/19 00:34:48;;;;;;;11.90;8.37;;;;;;;;;;5037034;28;20863;-71
2021/11/19 00:37:17;;;;;;;11.40;8.70;;;;;;;;;;5037630;28;20494;-72
2021/11/19 00:39:45;;;;;;;14.40;10.37;;;;;;;;;;5037028;28;20738;-73
2021/11/19 00:42:13;;;;;;;9.40;7.67;;;;;;;;;;5037296;28;20506;-73
2021/11/19 00:44:41;;;;;;;13.20;8.70;;;;;;;;;;5037636;28;20815;-73
2021/11/19 00:47:09;;;;;;;12.27;8.53;;;;;;;;;;5050659;28;20551;-72
2021/11/19 00:49:37;;;;;;;13.00;9.33;;;;;;;;;;5056760;28;20518;-72
2021/11/19 00:52:08;;;;;;;14.10;8.90;;;;;;;;;;5056607;28;20469;-73
2021/11/19 00:54:36;;;;;;;14.57;8.03;;;;;;;;;;5053571;28;20481;-73
2021/11/19 00:57:05;;;;;;;15.87;8.90;;;;;;;;;;5037283;28;20505;-72
2021/11/19 00:59:34;;;;;;;15.23;9.03;;;;;;;;;;5037390;28;20458;-73
2021/11/19 01:02:03;;;;;;;15.37;7.57;;;;;;;;;;5038493;28;20462;-72
2021/11/19 01:04:31;;;;;;;11.47;8.50;;;;;;;;;;5036814;28;20549;-73
2021/11/19 01:06:59;;;;;;;11.83;8.73;;;;;;;;;;5037164;28;20806;-72
2021/11/19 01:09:30;;;;;;;8.20;5.77;;;;;;;;;;5038232;28;20466;-73
2021/11/19 01:11:58;;;;;;;16.13;9.40;;;;;;;;;;5038238;28;20454;-73
2021/11/19 01:14:28;;;;;;;11.60;8.73;;;;;;;;;;5047603;28;20461;-72
2021/11/19 01:16:58;;;;;;;15.50;8.93;;;;;;;;;;5056104;28;20472;-72
2021/11/19 01:19:28;;;;;;;17.10;8.77;;;;;;;;;;5056287;28;20594;-72
2021/11/19 01:21:57;;;;;;;13.83;9.97;;;;;;;;;;5056199;28;20552;-73
2021/11/19 01:24:25;;;;;;;12.17;9.27;;;;;;;;;;5056625;28;20729;-72
2021/11/19 01:26:55;;;;;;;10.90;7.43;;;;;;;;;;5057241;28;20457;-73
2021/11/19 01:29:22;;;;;;;17.03;8.20;;;;;;;;;;5056580;28;20464;-73
2021/11/19 01:31:52;;;;;;;23.57;9.13;;;;;;;;;;5056788;28;20733;-72
2021/11/19 01:34:20;;;;;;;13.63;6.70;;;;;;;;;;5056612;28;20520;-73
2021/11/19 01:36:49;;;;;;;11.60;6.40;;;;;;;;;;5055816;28;20489;-72
2021/11/19 01:39:19;;;;;;;10.87;6.90;;;;;;;;;;5059824;28;20499;-72
2021/11/19 01:41:49;;;;;;;13.03;7.70;;;;;;;;;;5059668;28;20544;-72
2021/11/19 01:44:20;;;;;;;14.33;7.97;;;;;;;;;;5060039;28;20469;-72
2021/11/19 01:46:50;;;;;;;13.57;8.70;;;;;;;;;;5061894;28;20515;-73
2021/11/19 01:49:18;;;;;;;18.30;8.70;;;;;;;;;;5059722;28;20572;-72
2021/11/19 01:51:47;;;;;;;10.37;6.83;;;;;;;;;;5059543;28;20484;-72
2021/11/19 01:54:18;;;;;;;11.77;7.17;;;;;;;;;;5060963;28;20857;-72
2021/11/19 01:56:47;;;;;;;10.60;7.27;;;;;;;;;;5059576;28;20453;-72
2021/11/19 01:59:18;;;;;;;11.93;7.50;;;;;;;;;;5060090;28;20532;-72
2021/11/19 02:01:48;;;;;;;11.77;8.10;;;;;;;;;;5061257;28;20457;-72
2021/11/19 02:04:18;;;;;;;14.23;8.20;;;;;;;;;;5059745;28;20465;-72
2021/11/19 02:06:48;;;;;;;9.53;6.80;;;;;;;;;;5060232;28;20727;-72
2021/11/19 02:09:20;;;;;;;14.60;9.70;;;;;;;;;;5054044;28;20915;-72
2021/11/19 02:11:50;;;;;;;8.53;5.60;;;;;;;;;;5041190;28;20466;-73
2021/11/19 02:14:19;;;;;;;16.23;8.40;;;;;;;;;;5039936;28;20460;-72
2021/11/19 02:16:50;;;;;;;15.03;8.17;;;;;;;;;;5040371;28;20460;-72
2021/11/19 02:19:20;;;;;;;18.37;7.47;;;;;;;;;;5039829;28;20533;-72
2021/11/19 02:21:55;;;;;;;14.07;7.70;;;;;;;;;;5040308;28;20553;-72
2021/11/19 02:24:24;;;;;;;14.07;8.53;;;;;;;;;;5050475;28;20479;-72
2021/11/19 02:26:54;;;;;;;13.40;8.33;;;;;;;;;;5058061;28;20897;-72
2021/11/19 02:29:22;;;;;;;13.87;9.27;;;;;;;;;;5059223;28;20475;-72
2021/11/19 02:31:53;;;;;;;15.47;9.77;;;;;;;;;;5051629;28;20464;-72
2021/11/19 02:34:22;;;;;;;12.63;8.60;;;;;;;;;;5041248;28;20466;-72
2021/11/19 02:36:52;;;;;;;12.50;8.93;;;;;;;;;;5041420;28;20463;-72
2021/11/19 02:39:21;;;;;;;11.20;7.73;;;;;;;;;;5040913;28;20551;-72
2021/11/19 02:41:52;;;;;;;16.97;10.13;;;;;;;;;;5039734;28;20454;-72
2021/11/19 02:44:21;;;;;;;11.97;9.70;;;;;;;;;;5039684;28;20473;-72
2021/11/19 02:46:51;;;;;;;13.17;7.80;;;;;;;;;;5039366;28;20454;-72
2021/11/19 02:49:20;;;;;;;15.23;8.40;;;;;;;;;;5039073;28;20474;-72
2021/11/19 02:51:48;;;;;;;20.17;8.57;;;;;;;;;;5039306;28;20918;-72
2021/11/19 02:54:17;;;;;;;14.63;7.20;;;;;;;;;;5039647;28;20850;-72
2021/11/19 02:56:45;;;;;;;12.30;9.37;;;;;;;;;;5039598;28;20466;-72
2021/11/19 02:59:14;;;;;;;21.60;8.13;;;;;;;;;;5039155;28;20573;-72
2021/11/19 03:01:45;;;;;;;12.73;8.30;;;;;;;;;;5039607;28;20537;-72
2021/11/19 03:04:14;;;;;;;9.70;7.47;;;;;;;;;;5043024;28;20493;-72
2021/11/19 03:06:45;;;;;;;14.50;8.50;;;;;;;;;;5058871;28;20457;-72
2021/11/19 03:09:13;;;;;;;10.77;7.53;;;;;;;;;;5058868;28;20881;-72
2021/11/19 03:11:41;;;;;;;16.20;8.90;;;;;;;;;;5059200;28;20461;-72
2021/11/19 03:14:10;;;;;;;13.87;8.80;;;;;;;;;;5058765;28;20465;-72
2021/11/19 03:16:37;;;;;;;11.60;7.83;;;;;;;;;;5058271;28;20557;-71
2021/11/19 03:19:05;;;;;;;12.20;8.63;;;;;;;;;;5058389;28;20923;-72
2021/11/19 03:21:33;;;;;;;12.63;8.63;;;;;;;;;;5057947;28;20500;-72
2021/11/19 03:24:03;;;;;;;14.47;8.03;;;;;;;;;;5039902;28;20475;-72
2021/11/19 03:26:32;;;;;;;10.13;7.03;;;;;;;;;;5039020;28;20528;-71
2021/11/19 03:29:00;;;;;;;10.90;7.43;;;;;;;;;;5038657;28;20481;-72
2021/11/19 03:31:28;;;;;;;8.97;6.17;;;;;;;;;;5038929;28;20513;-72
2021/11/19 03:33:55;;;;;;;15.73;8.50;;;;;;;;;;5038362;28;20573;-72
2021/11/19 03:36:24;;;;;;;10.10;7.83;;;;;;;;;;5038297;28;20902;-72
2021/11/19 03:38:53;;;;;;;9.70;7.63;;;;;;;;;;5038142;28;20552;-73
2021/11/19 03:41:24;;;;;;;10.70;7.77;;;;;;;;;;5038074;28;20462;-72
2021/11/19 03:43:53;;;;;;;9.73;7.00;;;;;;;;;;5038161;28;20462;-71
2021/11/19 03:46:22;;;;;;;7.93;5.83;;;;;;;;;;5038794;28;20815;-72
2021/11/19 03:48:50;;;;;;;10.80;6.30;;;;;;;;;;5037928;28;20878;-72
2021/11/19 03:51:19;;;;;;;10.10;6.93;;;;;;;;;;5037898;28;20757;-71
2021/11/19 03:53:47;;;;;;;10.67;5.40;;;;;;;;;;5037908;28;20446;-72
2021/11/19 03:56:17;;;;;;;8.20;6.23;;;;;;;;;;5037708;28;20490;-72
2021/11/19 03:58:47;;;;;;;8.70;5.97;;;;;;;;;;5037580;28;20486;-72
2021/11/19 04:01:23;;;;;;;8.20;5.23;;;;;;;;;;5037951;28;20549;-72
2021/11/19 04:03:51;;;;;;;9.63;6.30;;;;;;;;;;5037563;28;20461;-72
2021/11/19 04:06:20;;;;;;;12.73;5.23;;;;;;;;;;5037788;28;20466;-72
2021/11/19 04:08:48;;;;;;;8.70;6.37;;;;;;;;;;5037493;28;20532;-72
2021/11/19 04:11:15;;;;;;;11.53;7.07;;;;;;;;;;5037370;28;21105;-72
2021/11/19 04:13:44;;;;;;;9.00;6.23;;;;;;;;;;5036841;28;20541;-72
2021/11/19 04:16:14;;;;;;;10.80;5.00;;;;;;;;;;5036714;28;20465;-72
2021/11/19 04:18:43;;;;;;;11.03;6.07;;;;;;;;;;5036447;28;20540;-72
2021/11/19 04:21:11;;;;;;;15.17;5.90;;;;;;;;;;5036961;28;20474;-72
2021/11/19 04:23:39;;;;;;;14.43;7.60;;;;;;;;;;5037555;28;20454;-72
2021/11/19 04:26:08;;;;;;;12.27;6.70;;;;;;;;;;5036756;28;20477;-72
2021/11/19 04:28:35;;;;;;;10.30;6.97;;;;;;;;;;5037717;28;20497;-72
2021/11/19 04:31:03;;;;;;;9.50;4.80;;;;;;;;;;5037127;28;20505;-72
2021/11/19 04:33:34;;;;;;;10.07;6.37;;;;;;;;;;5046646;28;20469;-72
2021/11/19 04:36:02;;;;;;;7.90;6.37;;;;;;;;;;5057013;28;20457;-72
2021/11/19 04:38:30;;;;;;;8.30;6.50;;;;;;;;;;5056378;28;20468;-72
2021/11/19 04:40:59;;;;;;;12.53;7.67;;;;;;;;;;5058638;28;20472;-72
2021/11/19 04:43:27;;;;;;;7.73;5.30;;;;;;;;;;5056879;28;20453;-71
2021/11/19 04:45:55;;;;;;;9.03;5.10;;;;;;;;;;5056805;28;20465;-71
2021/11/19 04:48:24;;;;;;;9.20;6.33;;;;;;;;;;5057155;28;20532;-70
2021/11/19 04:50:54;;;;;;;10.40;6.40;;;;;;;;;;5056670;28;20472;-70
2021/11/19 04:53:24;;;;;;;8.47;6.17;;;;;;;;;;5056776;28;20493;-70
2021/11/19 04:55:51;;;;;;;5.13;3.57;;;;;;;;;;5056598;28;20457;-71
2021/11/19 04:58:19;;;;;;;10.83;5.23;;;;;;;;;;5056799;28;20493;-71
2021/11/19 05:00:51;;;;;;;9.30;5.17;;;;;;;;;;5057521;28;20445;-71
2021/11/19 05:03:19;;;;;;;17.43;7.27;;;;;;;;;;5056455;28;20461;-70
2021/11/19 05:05:47;;;;;;;9.80;6.47;;;;;;;;;;5056225;28;20515;-72
2021/11/19 05:08:18;;;;;;;11.23;6.37;;;;;;;;;;5057411;28;20461;-71
2021/11/19 05:10:47;;;;;;;10.30;6.43;;;;;;;;;;5051209;28;20560;-71
2021/11/19 05:13:15;;;;;;;6.50;4.80;;;;;;;;;;5036337;28;20470;-71
2021/11/19 05:15:45;;;;;;;10.47;6.37;;;;;;;;;;5035727;28;20459;-71
2021/11/19 05:18:13;;;;;;;9.67;6.23;;;;;;;;;;5036492;28;20473;-71
2021/11/19 05:20:41;;;;;;;13.37;7.93;;;;;;;;;;5035700;28;20969;-71
2021/11/19 05:23:09;;;;;;;12.67;7.53;;;;;;;;;;5035666;28;20591;-71
2021/11/19 05:25:41;;;;;;;14.60;9.50;;;;;;;;;;5037962;28;20482;-71
2021/11/19 05:28:09;;;;;;;11.03;6.57;;;;;;;;;;5036797;28;20523;-71
2021/11/19 05:30:38;;;;;;;8.67;5.83;;;;;;;;;;5036961;28;20469;-71
2021/11/19 05:33:06;;;;;;;11.43;8.07;;;;;;;;;;5037276;28;20470;-70
2021/11/19 05:35:34;;;;;;;14.77;7.10;;;;;;;;;;5037670;28;20560;-71
2021/11/19 05:38:02;;;;;;;15.63;8.20;;;;;;;;;;5036859;28;20466;-70
2021/11/19 05:40:30;;;;;;;12.23;7.83;;;;;;;;;;5036881;28;20559;-71
2021/11/19 05:43:00;;;;;;;12.50;7.17;;;;;;;;;;5037024;28;20462;-70
2021/11/19 05:45:29;;;;;;;10.67;7.00;;;;;;;;;;5051108;28;20536;-71
2021/11/19 05:47:57;;;;;;;11.10;6.90;;;;;;;;;;5056395;28;20500;-71
2021/11/19 05:50:27;;;;;;;13.60;6.77;;;;;;;;;;5055491;28;20905;-71
2021/11/19 05:52:57;;;;;;;9.97;7.13;;;;;;;;;;5055489;28;20461;-71
2021/11/19 05:55:28;;;;;;;12.80;8.00;;;;;;;;;;5051278;28;20464;-71
2021/11/19 05:57:56;;;;;;;10.47;7.57;;;;;;;;;;5040207;28;20475;-72
2021/11/19 06:00:27;;;;;;;21.70;11.60;;;;;;;;;;5035848;28;20486;-70
2021/11/19 06:02:55;;;;;;;9.87;7.43;;;;;;;;;;5035601;28;20460;-70
2021/11/19 06:05:25;;;;;;;17.17;7.60;;;;;;;;;;5035061;28;20478;-72
2021/11/19 06:07:53;;;;;;;14.40;6.70;;;;;;;;;;5035655;28;20944;-71
2021/11/19 06:10:25;;;;;;;11.27;6.37;;;;;;;;;;5036003;28;20470;-72
2021/11/19 06:12:54;;;;;;;12.80;6.50;;;;;;;;;;5046303;28;20464;-72
2021/11/19 06:15:23;;;;;;;9.47;7.17;;;;;;;;;;5053737;28;20527;-72
2021/11/19 06:17:53;;;;;;;14.00;6.60;;;;;;;;;;5054745;28;20522;-71
2021/11/19 06:20:34;;;;;;;11.60;6.93;;;;;;;;;;5054107;28;20542;-71
2021/11/19 06:23:04;;;;;;;20.90;10.40;;;;;;;;;;5053959;28;20458;-71
2021/11/19 06:25:33;;;;;;;11.47;7.00;;;;;;;;;;5057370;28;20463;-71
2021/11/19 06:28:02;;;;;;;11.90;8.70;;;;;;;;;;5052153;28;20477;-71
2021/11/19 06:30:30;;;;;;;41.30;18.40;;;;;;;;;;5040605;28;20461;-71
2021/11/19 06:33:00;;;;;;;11.63;7.40;;;;;;;;;;5049792;28;20474;-71
2021/11/19 06:35:28;;;;;;;12.00;7.50;;;;;;;;;;5037624;28;20456;-71
2021/11/19 06:37:56;;;;;;;11.33;6.53;;;;;;;;;;5043099;28;20525;-71
2021/11/19 06:40:26;;;;;;;12.97;7.53;;;;;;;;;;5056950;28;20493;-72
2021/11/19 06:42:57;;;;;;;11.33;6.77;;;;;;;;;;5054948;28;20468;-71
2021/11/19 06:45:28;;;;;;;14.57;6.70;;;;;;;;;;5044232;28;20519;-71
2021/11/19 06:47:59;;;;;;;9.83;7.87;;;;;;;;;;5056539;28;20535;-71
2021/11/19 06:50:30;;;;;;;11.60;8.20;;;;;;;;;;5041532;28;20533;-70
2021/11/19 06:53:07;;;;;;;11.97;7.17;;;;;;;;;;5036365;28;20462;-71
2021/11/19 06:55:36;;;;;;;10.77;7.17;;;;;;;;;;5035628;28;20756;-72
2021/11/19 06:58:06;;;;;;;10.93;6.93;;;;;;;;;;5035081;28;20520;-73
2021/11/19 07:00:36;;;;;;;11.57;5.67;;;;;;;;;;5035427;28;20502;-71
2021/11/19 07:03:06;;;;;;;9.13;4.90;;;;;;;;;;5054333;28;20473;-71
2021/11/19 07:05:43;;;;;;;14.37;7.27;;;;;;;;;;5056116;28;20527;-71
2021/11/19 07:08:13;;;;;;;8.47;4.30;;;;;;;;;;5053695;28;20573;-69
2021/11/19 07:10:41;;;;;;;9.30;6.03;;;;;;;;;;5040076;28;20459;-71
2021/11/19 07:13:11;;;;;;;9.77;6.67;;;;;;;;;;5036181;28;21052;-71
2021/11/19 07:15:39;;;;;;;11.73;7.30;;;;;;;;;;5046603;28;20472;-70
2021/11/19 07:18:07;;;;;;;12.37;7.07;;;;;;;;;;5055238;28;20449;-71
2021/11/19 07:20:43;;;;;;;6.13;5.20;;;;;;;;;;5056110;28;20652;-72
2021/11/19 07:23:20;;;;;;;15.57;7.03;;;;;;;;;;5057611;28;20548;-72
2021/11/19 07:25:48;;;;;;;7.57;5.40;;;;;;;;;;5044088;28;20461;-73
2021/11/19 07:28:19;;;;;;;13.53;9.67;;;;;;;;;;5055963;28;20454;-73
2021/11/19 07:30:51;;;;;;;11.60;5.87;;;;;;;;;;5055893;28;20458;-72
2021/11/19 07:33:20;;;;;;;9.90;6.27;;;;;;;;;;5046378;28;20492;-73
2021/11/19 07:35:54;;;;;;;9.30;6.70;;;;;;;;;;5044065;28;20501;-72
2021/11/19 07:38:23;;;;;;;8.47;3.60;;;;;;;;;;5038754;28;20756;-73
2021/11/19 07:40:51;;;;;;;10.53;5.97;;;;;;;;;;5039758;28;20485;-72
2021/11/19 07:43:23;;;;;;;13.37;4.90;;;;;;;;;;5053900;28;21111;-72
2021/11/19 07:45:53;;;;;;;10.30;6.80;;;;;;;;;;5042738;28;20461;-73
2021/11/19 07:48:23;;;;;;;8.00;5.83;;;;;;;;;;5044532;28;20916;-73
2021/11/19 07:50:55;;;;;;;11.50;5.93;;;;;;;;;;5048575;28;20458;-72
2021/11/19 07:53:24;;;;;;;6.67;4.87;;;;;;;;;;5055352;28;20881;-74
2021/11/19 07:55:53;;;;;;;13.63;6.90;;;;;;;;;;5057486;28;20738;-73
2021/11/19 07:58:22;;;;;;;9.33;5.90;;;;;;;;;;5040912;28;20500;-73
2021/11/19 08:00:53;;;;;;;8.40;5.40;;;;;;;;;;5051735;28;20537;-74
2021/11/19 08:03:24;;;;;;;17.83;6.10;;;;;;;;;;5036509;28;20481;-73
2021/11/19 08:05:55;;;;;;;7.17;4.87;;;;;;;;;;5036254;28;20465;-71
2021/11/19 08:08:24;;;;;;;18.47;7.47;;;;;;;;;;5035953;28;20527;-72
2021/11/19 08:10:52;;;;;;;7.73;4.60;;;;;;;;;;5037233;28;20916;-73
2021/11/19 08:13:20;;;;;;;10.03;6.37;;;;;;;;;;5035902;28;20934;-72
2021/11/19 08:15:47;;;;;;;13.00;7.43;;;;;;;;;;5036057;28;20925;-71
2021/11/19 08:18:18;;;;;;;6.50;4.87;;;;;;;;;;5037229;28;20862;-72
2021/11/19 08:20:49;;;;;;;10.33;7.57;;;;;;;;;;5047258;28;20514;-71
2021/11/19 08:23:23;;;;;;;9.70;6.43;;;;;;;;;;5055487;28;20904;-71
2021/11/19 08:25:52;;;;;;;8.80;5.30;;;;;;;;;;5054375;28;20483;-71
2021/11/19 08:28:20;;;;;;;9.50;4.80;;;;;;;;;;5037796;28;20549;-71
2021/11/19 08:30:50;;;;;;;8.37;4.53;;;;;;;;;;5052683;28;20540;-71
2021/11/19 08:33:18;;;;;;;13.17;6.50;;;;;;;;;;5043868;28;20458;-70
2021/11/19 08:35:47;;;;;;;9.93;7.40;;;;;;;;;;5047660;28;20454;-71
2021/11/19 08:38:15;;;;;;;8.70;5.87;;;;;;;;;;5055834;28;20476;-71
2021/11/19 08:40:46;;;;;;;10.50;6.63;;;;;;;;;;5046306;28;20581;-71
2021/11/19 08:43:15;;;;;;;7.67;5.63;;;;;;;;;;5039529;28;20467;-70
2021/11/19 08:45:50;;;;;;;13.90;7.77;;;;;;;;;;5052948;28;20558;-71
2021/11/19 08:48:18;;;;;;;11.87;6.73;;;;;;;;;;5045945;28;20469;-71
2021/11/19 08:50:46;;;;;;;9.20;8.10;;;;;;;;;;5047054;28;20541;-71
2021/11/19 08:53:18;;;;;;;13.10;7.63;;;;;;;;;;5044959;28;20951;-71
2021/11/19 08:55:57;;;;;;;17.97;8.63;;;;;;;;;;5036244;28;20459;-72
2021/11/19 08:58:30;;;;;;;13.90;9.70;;;;;;;;;;5037978;28;20473;-72
2021/11/19 09:01:00;;;;;;;15.20;9.47;;;;;;;;;;5041884;28;20517;-72
2021/11/19 09:06:30;;;;;;;11.97;6.30;;;;;;;;;;5032744;28;20928;-72
2021/11/19 09:09:03;;;;;;;13.40;10.13;;;;;;;;;;5038122;28;20465;-71
2021/11/19 09:11:59;;;;;;;11.53;9.30;;;;;;;;;;5037879;28;20490;-72
2021/11/19 09:14:58;;;;;;;12.70;10.63;;;;;;;;;;5013816;28;20473;-73
2021/11/19 09:17:47;;;;;;;14.40;9.90;;;;;;;;;;5032157;28;20453;-71
2021/11/19 09:20:20;;;;;;;15.80;8.30;;;;;;;;;;5056940;28;20485;-70
2021/11/19 09:22:51;;;;;;;10.97;6.70;;;;;;;;;;5056811;28;20449;-71
2021/11/19 09:25:24;;;;;;;16.73;9.57;;;;;;;;;;5054779;28;20573;-74
2021/11/19 09:28:02;;;;;;;7.60;6.60;;;;;;;;;;5046431;28;20449;-72
2021/11/19 09:30:37;;;;;;;16.23;11.57;;;;;;;;;;5046696;28;20470;-71
2021/11/19 09:33:23;;;;;;;13.73;8.23;;;;;;;;;;5046306;28;20453;-72
2021/11/19 09:35:54;;;;;;;16.70;10.30;;;;;;;;;;5046706;28;20519;-72
2021/11/19 09:38:24;;;;;;;11.80;8.63;;;;;;;;;;5045852;28;20511;-72
2021/11/19 09:41:00;;;;;;;13.50;9.07;;;;;;;;;;5046565;28;20488;-72
2021/11/19 09:43:44;;;;;;;8.93;4.93;;;;;;;;;;5056718;28;20453;-72
2021/11/19 09:46:35;;;;;;;16.37;10.30;;;;;;;;;;5055126;28;21112;-71
2021/11/19 09:49:27;;;;;;;23.27;10.80;;;;;;;;;;5031715;28;20509;-71
2021/11/19 09:52:25;;;;;;;19.30;12.37;;;;;;;;;;5034864;28;20501;-72
2021/11/19 09:55:10;;;;;;;18.33;8.77;;;;;;;;;;5025905;28;20462;-72
2021/11/19 09:57:59;;;;;;;12.73;8.03;;;;;;;;;;5035461;28;20735;-72
2021/11/19 10:00:37;;;;;;;22.33;8.83;;;;;;;;;;5039552;28;20568;-73
2021/11/19 10:03:21;;;;;;;26.43;8.40;;;;;;;;;;5052487;28;21099;-72
2021/11/19 10:05:59;;;;;;;8.00;5.70;;;;;;;;;;5057913;28;20488;-72
2021/11/19 10:08:44;;;;;;;10.17;5.83;;;;;;;;;;5039643;28;20784;-72
2021/11/19 10:11:20;;;;;;;10.57;6.80;;;;;;;;;;5042820;28;20970;-73
2021/11/19 10:14:08;;;;;;;15.57;6.50;;;;;;;;;;5049191;28;20527;-72
2021/11/19 10:16:49;;;;;;;11.90;9.53;;;;;;;;;;5038138;28;20747;-72
2021/11/19 10:19:20;;;;;;;13.90;7.93;;;;;;;;;;5038648;28;20449;-72
2021/11/19 10:21:59;;;;;;;13.00;8.70;;;;;;;;;;5040751;28;20482;-72
2021/11/19 10:24:43;;;;;;;11.30;6.20;;;;;;;;;;5039779;28;20526;-73
2021/11/19 10:27:22;;;;;;;9.10;6.30;;;;;;;;;;5038566;28;20580;-72
2021/11/19 10:30:04;;;;;;;7.47;5.40;;;;;;;;;;5041560;28;20461;-71
2021/11/19 10:32:38;;;;;;;11.63;6.80;;;;;;;;;;5050989;28;20946;-74
2021/11/19 10:35:19;;;;;;;11.40;8.30;;;;;;;;;;5057901;28;20466;-71
2021/11/19 10:38:07;;;;;;;7.03;4.93;;;;;;;;;;5057017;28;20457;-71
2021/11/19 10:40:49;;;;;;;12.73;8.03;;;;;;;;;;5023138;28;20486;-71
2021/11/19 10:43:29;;;;;;;8.40;4.70;;;;;;;;;;5036706;28;20498;-70
2021/11/19 10:46:07;;;;;;;6.53;3.80;;;;;;;;;;5038079;28;20548;-71
2021/11/19 10:48:54;;;;;;;5.07;4.00;;;;;;;;;;5036871;28;20561;-70
2021/11/19 10:51:42;;;;;;;12.53;5.20;;;;;;;;;;5053442;28;20517;-72
2021/11/19 10:54:43;;;;;;;7.60;5.90;;;;;;;;;;5043566;28;20455;-70
2021/11/19 10:57:28;;;;;;;11.30;7.60;;;;;;;;;;5040904;28;20467;-71
2021/11/19 11:00:08;;;;;;;9.07;6.50;;;;;;;;;;5037736;28;20477;-72
2021/11/19 11:02:38;;;;;;;7.20;6.40;;;;;;;;;;5037775;28;20815;-71
2021/11/19 11:05:30;;;;;;;11.40;6.40;;;;;;;;;;5051798;28;20888;-71
2021/11/19 11:08:15;;;;;;;10.40;7.43;;;;;;;;;;5051810;28;20541;-71
2021/11/19 11:10:55;;;;;;;10.87;7.63;;;;;;;;;;5055985;28;20507;-71
2021/11/19 11:13:36;;;;;;;7.93;7.10;;;;;;;;;;5036788;28;20552;-73
2021/11/19 11:16:27;;;;;;;10.03;6.00;;;;;;;;;;5055318;28;20506;-71
2021/11/19 11:18:57;;;;;;;10.33;8.30;;;;;;;;;;5053595;28;20904;-71
2021/11/19 11:21:27;;;;;;;10.60;8.33;;;;;;;;;;5051578;28;20964;-72
2021/11/19 11:24:10;;;;;;;9.00;7.17;;;;;;;;;;5047885;28;20887;-71
2021/11/19 11:26:41;;;;;;;7.97;7.17;;;;;;;;;;5053400;28;20476;-71
2021/11/19 11:29:27;;;;;;;11.50;9.57;;;;;;;;;;5038185;28;20457;-71
2021/11/19 11:32:06;;;;;;;7.33;6.60;;;;;;;;;;5042791;28;20477;-71
2021/11/19 11:34:36;;;;;;;9.33;5.80;;;;;;;;;;5046879;28;20443;-71
2021/11/19 11:37:11;;;;;;;10.50;7.67;;;;;;;;;;5054346;28;20468;-72
2021/11/19 11:39:44;;;;;;;16.03;6.00;;;;;;;;;;5057329;28;20457;-70
2021/11/19 11:42:15;;;;;;;10.50;6.07;;;;;;;;;;5056359;28;20493;-72
2021/11/19 11:44:44;;;;;;;13.00;8.40;;;;;;;;;;5057180;28;20802;-71
2021/11/19 11:47:18;;;;;;;9.00;5.80;;;;;;;;;;5040760;28;20588;-72
2021/11/19 11:49:48;;;;;;;13.00;9.67;;;;;;;;;;5042507;28;20459;-71
2021/11/19 11:52:41;;;;;;;9.17;6.70;;;;;;;;;;5044875;28;20477;-71
2021/11/19 11:55:16;;;;;;;14.93;6.60;;;;;;;;;;5047320;28;20457;-70
2021/11/19 11:57:51;;;;;;;9.60;6.73;;;;;;;;;;5041691;28;20456;-70
2021/11/19 12:00:22;;;;;;;7.70;4.67;;;;;;;;;;5056150;28;20467;-72
2021/11/19 12:02:55;;;;;;;11.80;6.80;;;;;;;;;;5046665;28;20489;-71
2021/11/19 12:05:34;;;;;;;10.10;6.20;;;;;;;;;;5040609;28;20466;-72
2021/11/19 12:08:18;;;;;;;8.10;5.10;;;;;;;;;;5039955;28;20953;-73
2021/11/19 12:10:55;;;;;;;10.37;6.73;;;;;;;;;;5054618;28;20478;-72
2021/11/19 12:13:27;;;;;;;9.30;6.00;;;;;;;;;;5053848;28;20483;-72
2021/11/19 12:16:08;;;;;;;9.60;5.53;;;;;;;;;;5055370;28;20458;-72
2021/11/19 12:18:48;;;;;;;10.93;5.63;;;;;;;;;;5054798;28;20468;-72
2021/11/19 12:21:22;;;;;;;9.20;6.67;;;;;;;;;;5039783;28;20772;-71
2021/11/19 12:24:05;;;;;;;10.17;7.10;;;;;;;;;;5053570;28;20568;-71
2021/11/19 12:26:43;;;;;;;6.20;4.20;;;;;;;;;;5037731;28;20445;-71
2021/11/19 12:29:17;;;;;;;13.10;6.77;;;;;;;;;;5050777;28;20485;-72
2021/11/19 12:32:01;;;;;;;8.90;7.13;;;;;;;;;;5054507;28;20465;-73
2021/11/19 12:35:14;;;;;;;14.13;6.20;;;;;;;;;;5056790;28;20559;-74
2021/11/19 12:37:53;;;;;;;18.90;6.00;;;;;;;;;;5043093;28;20450;-72
2021/11/19 12:40:34;;;;;;;10.70;5.90;;;;;;;;;;5041369;28;20446;-72
2021/11/19 12:43:29;;;;;;;;;;;;;;;;;;;;;
2021/11/19 12:45:59;;;;;;;8.50;5.50;;;;;;;;;;5053413;28;20460;-71
2021/11/19 12:48:36;;;;;;;10.73;6.20;;;;;;;;;;5036477;28;20900;-71
2021/11/19 12:51:14;;;;;;;7.33;6.57;;;;;;;;;;5051834;28;20461;-72
2021/11/19 12:53:52;;;;;;;7.10;6.27;;;;;;;;;;5053492;28;20472;-72
2021/11/19 12:56:22;;;;;;;7.80;6.00;;;;;;;;;;5040896;28;20560;-72
2021/11/19 12:58:55;;;;;;;10.63;5.60;;;;;;;;;;5038803;28;20523;-71
2021/11/19 13:01:35;;;;;;;12.30;5.43;;;;;;;;;;5047855;28;20485;-72
2021/11/19 13:04:23;;;;;;;13.77;6.30;;;;;;;;;;5055346;28;20492;-71
2021/11/19 13:07:00;;;;;;;16.70;8.53;;;;;;;;;;5043265;28;20527;-71
2021/11/19 13:09:53;;;;;;;12.10;6.60;;;;;;;;;;5044404;28;20463;-72
2021/11/19 13:12:40;;;;;;;9.13;4.13;;;;;;;;;;5042317;28;20971;-73
2021/11/19 13:15:26;;;;;;;9.30;5.93;;;;;;;;;;5038250;28;20532;-72
2021/11/19 13:18:31;;;;;;;11.53;5.03;;;;;;;;;;5037676;28;20462;-70
2021/11/19 13:21:01;;;;;;;14.03;9.03;;;;;;;;;;5038976;28;20604;-74
2021/11/19 13:23:37;;;;;;;8.50;3.90;;;;;;;;;;5038947;28;20476;-72
2021/11/19 13:26:29;;;;;;;13.33;4.33;;;;;;;;;;5040904;28;20548;-72
2021/11/19 13:29:07;;;;;;;17.77;12.50;;;;;;;;;;5053738;28;20523;-71
2021/11/19 13:31:39;;;;;;;9.00;5.93;;;;;;;;;;5047811;28;20478;-72
2021/11/19 13:37:23;;;;;;;10.10;5.90;;;;;;;;;;5050010;28;20522;-72
2021/11/19 13:40:23;;;;;;;9.13;5.13;;;;;;;;;;5053973;28;20454;-72
2021/11/19 13:46:22;;;;;;;5.53;3.37;;;;;;;;;;5042189;28;20806;-72
2021/11/19 13:49:34;;;;;;;;;;;;;;;;;;;;;
2021/11/19 13:52:14;;;;;;;5.50;3.40;;;;;;;;;;5058139;28;20907;-72
2021/11/19 13:54:48;;;;;;;9.90;3.47;;;;;;;;;;5049985;28;20819;-72
2021/11/19 13:57:24;;;;;;;8.67;3.30;;;;;;;;;;5048960;28;20462;-72
2021/11/19 13:59:57;;;;;;;9.43;3.90;;;;;;;;;;5039500;28;20569;-71
2021/11/19 14:02:30;;;;;;;8.20;3.67;;;;;;;;;;5043021;28;20584;-72
2021/11/19 14:04:59;;;;;;;4.60;4.00;;;;;;;;;;5058112;28;20535;-71
2021/11/19 14:07:28;;;;;;;5.40;3.03;;;;;;;;;;5057087;28;20457;-71
2021/11/19 14:10:11;;;;;;;8.83;4.73;;;;;;;;;;5057139;28;20551;-71
2021/11/19 14:12:53;;;;;;;10.37;5.83;;;;;;;;;;5044643;28;20469;-72
2021/11/19 14:15:27;;;;;;;5.30;3.40;;;;;;;;;;5040676;28;20473;-72
2021/11/19 14:18:14;;;;;;;5.70;4.53;;;;;;;;;;5050087;28;20467;-71
2021/11/19 14:23:41;;;;;;;4.60;3.20;;;;;;;;;;5037959;28;20531;-76
2021/11/19 14:26:12;;;;;;;4.80;2.77;;;;;;;;;;5058383;28;20490;-71
2021/11/19 14:28:52;;;;;;;9.90;4.07;;;;;;;;;;5057296;28;20457;-72
2021/11/19 14:31:27;;;;;;;12.73;5.53;;;;;;;;;;5056596;28;20528;-73
2021/11/19 14:36:57;;;;;;;13.37;5.17;;;;;;;;;;5039348;28;20512;-71
2021/11/19 14:39:27;;;;;;;11.37;5.13;;;;;;;;;;5038602;28;20465;-72
2021/11/19 14:42:05;;;;;;;7.07;4.47;;;;;;;;;;5039904;28;20933;-73
2021/11/19 14:47:22;;;;;;;7.90;3.30;;;;;;;;;;5062612;28;20508;-72
2021/11/19 14:53:24;;;;;;;11.50;4.07;;;;;;;;;;5045074;28;20885;-72
2021/11/19 14:56:07;;;;;;;8.13;4.57;;;;;;;;;;5048481;28;21045;-73
2021/11/19 14:58:52;;;;;;;7.20;3.07;;;;;;;;;;5058959;28;20724;-72
2021/11/19 15:01:40;;;;;;;9.80;4.20;;;;;;;;;;5060372;28;20468;-73
2021/11/19 15:04:18;;;;;;;10.73;4.57;;;;;;;;;;5060052;28;20482;-72
2021/11/19 15:06:48;;;;;;;9.00;3.40;;;;;;;;;;5049928;28;20472;-71
2021/11/19 15:09:22;;;;;;;10.73;5.03;;;;;;;;;;5055822;28;20449;-72
2021/11/19 15:11:59;;;;;;;5.37;3.63;;;;;;;;;;5056253;28;20508;-73
2021/11/19 15:14:35;;;;;;;5.93;3.50;;;;;;;;;;5052296;28;20501;-72
2021/11/19 15:17:20;;;;;;;6.53;3.93;;;;;;;;;;5037073;28;20778;-72
2021/11/19 15:19:49;;;;;;;8.33;5.03;;;;;;;;;;5038459;28;20446;-71
2021/11/19 15:22:33;;;;;;;9.00;4.23;;;;;;;;;;5040850;28;20478;-71
2021/11/19 15:25:06;;;;;;;10.00;3.47;;;;;;;;;;5045290;28;20884;-72
2021/11/19 15:27:37;;;;;;;8.47;4.57;;;;;;;;;;5040542;28;20592;-71
2021/11/19 15:30:07;;;;;;;9.53;4.60;;;;;;;;;;5042440;28;20477;-72
2021/11/19 15:32:43;;;;;;;8.37;4.40;;;;;;;;;;5053830;28;20482;-75